sensor_id;sensor_type;location;lat;lon;timestamp;P1;durP1;ratioP1;P2;durP2;ratioP2
974;SDS011;6115;49.296;10.602;2022-09-09T00:04:57;2.97;;;2.53;;
974;SDS011;6115;49.296;10.602;2022-09-09T00:15:26;2.70;;;2.50;;
974;SDS011;6115;49.296;10.602;2022-09-09T00:20:49;2.73;;;2.53;;
974;SDS011;6115;49.296;10.602;2022-09-09T00:31:12;3.00;;;2.70;;
974;SDS011;6115;49.296;10.602;2022-09-09T00:36:17;3.47;;;2.90;;
974;SDS011;6115;49.296;10.602;2022-09-09T00:46:44;3.30;;;2.87;;
974;SDS011;6115;49.296;10.602;2022-09-09T00:51:58;4.43;;;3.10;;
974;SDS011;6115;49.296;10.602;2022-09-09T01:02:36;8.23;;;3.17;;
974;SDS011;6115;49.296;10.602;2022-09-09T01:07:58;6.37;;;2.93;;
974;SDS011;6115;49.296;10.602;2022-09-09T01:13:02;4.70;;;2.87;;
974;SDS011;6115;49.296;10.602;2022-09-09T01:18:13;6.43;;;2.73;;
974;SDS011;6115;49.296;10.602;2022-09-09T01:23:30;5.07;;;2.80;;
974;SDS011;6115;49.296;10.602;2022-09-09T01:28:54;8.63;;;2.90;;
974;SDS011;6115;49.296;10.602;2022-09-09T01:33:54;3.70;;;2.80;;
974;SDS011;6115;49.296;10.602;2022-09-09T01:38:55;4.20;;;2.87;;
974;SDS011;6115;49.296;10.602;2022-09-09T01:43:56;2.80;;;2.47;;
974;SDS011;6115;49.296;10.602;2022-09-09T01:48:57;3.43;;;2.70;;
974;SDS011;6115;49.296;10.602;2022-09-09T01:54:00;5.63;;;2.80;;
974;SDS011;6115;49.296;10.602;2022-09-09T01:59:04;4.23;;;3.10;;
974;SDS011;6115;49.296;10.602;2022-09-09T02:04:16;3.60;;;3.30;;
974;SDS011;6115;49.296;10.602;2022-09-09T02:09:28;6.07;;;2.57;;
974;SDS011;6115;49.296;10.602;2022-09-09T02:14:31;2.83;;;2.50;;
974;SDS011;6115;49.296;10.602;2022-09-09T02:19:46;2.80;;;2.60;;
974;SDS011;6115;49.296;10.602;2022-09-09T02:24:52;4.80;;;2.83;;
974;SDS011;6115;49.296;10.602;2022-09-09T02:29:59;2.93;;;2.73;;
974;SDS011;6115;49.296;10.602;2022-09-09T02:35:04;5.07;;;2.83;;
974;SDS011;6115;49.296;10.602;2022-09-09T02:40:10;2.33;;;2.13;;
974;SDS011;6115;49.296;10.602;2022-09-09T02:45:12;3.00;;;2.50;;
974;SDS011;6115;49.296;10.602;2022-09-09T02:50:26;5.20;;;2.57;;
974;SDS011;6115;49.296;10.602;2022-09-09T03:00:38;3.40;;;2.30;;
974;SDS011;6115;49.296;10.602;2022-09-09T03:05:40;4.10;;;2.23;;
974;SDS011;6115;49.296;10.602;2022-09-09T03:10:40;3.50;;;2.20;;
974;SDS011;6115;49.296;10.602;2022-09-09T03:15:41;3.80;;;2.80;;
974;SDS011;6115;49.296;10.602;2022-09-09T03:20:42;3.83;;;2.13;;
974;SDS011;6115;49.296;10.602;2022-09-09T03:25:46;2.30;;;2.00;;
974;SDS011;6115;49.296;10.602;2022-09-09T03:30:48;5.00;;;2.90;;
974;SDS011;6115;49.296;10.602;2022-09-09T03:35:49;3.80;;;2.50;;
974;SDS011;6115;49.296;10.602;2022-09-09T03:40:52;3.70;;;2.43;;
974;SDS011;6115;49.296;10.602;2022-09-09T03:45:57;2.90;;;2.60;;
974;SDS011;6115;49.296;10.602;2022-09-09T03:50:57;5.80;;;2.50;;
974;SDS011;6115;49.296;10.602;2022-09-09T03:56:00;3.40;;;2.67;;
974;SDS011;6115;49.296;10.602;2022-09-09T04:01:02;4.07;;;3.40;;
974;SDS011;6115;49.296;10.602;2022-09-09T04:06:05;2.43;;;2.23;;
974;SDS011;6115;49.296;10.602;2022-09-09T04:11:07;5.50;;;2.60;;
974;SDS011;6115;49.296;10.602;2022-09-09T04:16:10;3.87;;;2.33;;
974;SDS011;6115;49.296;10.602;2022-09-09T04:21:13;6.10;;;2.73;;
974;SDS011;6115;49.296;10.602;2022-09-09T04:26:14;5.83;;;2.43;;
974;SDS011;6115;49.296;10.602;2022-09-09T04:31:18;5.07;;;2.77;;
974;SDS011;6115;49.296;10.602;2022-09-09T04:36:22;4.53;;;2.83;;
974;SDS011;6115;49.296;10.602;2022-09-09T04:41:23;3.90;;;2.60;;
974;SDS011;6115;49.296;10.602;2022-09-09T04:46:24;3.40;;;2.60;;
974;SDS011;6115;49.296;10.602;2022-09-09T04:51:25;4.53;;;2.90;;
974;SDS011;6115;49.296;10.602;2022-09-09T04:56:26;5.47;;;2.30;;
974;SDS011;6115;49.296;10.602;2022-09-09T05:01:28;4.97;;;2.40;;
974;SDS011;6115;49.296;10.602;2022-09-09T05:06:29;3.40;;;2.00;;
974;SDS011;6115;49.296;10.602;2022-09-09T05:11:32;2.93;;;2.03;;
974;SDS011;6115;49.296;10.602;2022-09-09T05:16:36;4.30;;;2.23;;
974;SDS011;6115;49.296;10.602;2022-09-09T05:21:37;14.07;;;2.50;;
974;SDS011;6115;49.296;10.602;2022-09-09T05:26:37;4.03;;;1.90;;
974;SDS011;6115;49.296;10.602;2022-09-09T05:31:38;3.47;;;2.33;;
974;SDS011;6115;49.296;10.602;2022-09-09T05:36:39;6.27;;;2.60;;
974;SDS011;6115;49.296;10.602;2022-09-09T05:41:39;3.33;;;3.03;;
974;SDS011;6115;49.296;10.602;2022-09-09T05:46:40;5.47;;;3.00;;
974;SDS011;6115;49.296;10.602;2022-09-09T05:51:40;5.87;;;3.03;;
974;SDS011;6115;49.296;10.602;2022-09-09T05:56:42;4.07;;;3.00;;
974;SDS011;6115;49.296;10.602;2022-09-09T06:01:43;5.40;;;2.80;;
974;SDS011;6115;49.296;10.602;2022-09-09T06:06:45;5.27;;;3.23;;
974;SDS011;6115;49.296;10.602;2022-09-09T06:11:45;3.70;;;2.77;;
974;SDS011;6115;49.296;10.602;2022-09-09T06:16:46;3.07;;;2.33;;
974;SDS011;6115;49.296;10.602;2022-09-09T06:21:46;3.10;;;2.40;;
974;SDS011;6115;49.296;10.602;2022-09-09T06:26:47;2.00;;;1.90;;
974;SDS011;6115;49.296;10.602;2022-09-09T06:31:48;3.30;;;2.20;;
974;SDS011;6115;49.296;10.602;2022-09-09T06:36:49;3.60;;;1.87;;
974;SDS011;6115;49.296;10.602;2022-09-09T06:41:49;3.20;;;1.50;;
974;SDS011;6115;49.296;10.602;2022-09-09T06:46:52;4.70;;;1.97;;
974;SDS011;6115;49.296;10.602;2022-09-09T06:51:53;5.40;;;1.60;;
974;SDS011;6115;49.296;10.602;2022-09-09T06:56:54;5.77;;;1.50;;
974;SDS011;6115;49.296;10.602;2022-09-09T07:01:55;2.00;;;1.00;;
974;SDS011;6115;49.296;10.602;2022-09-09T07:06:56;4.10;;;1.40;;
974;SDS011;6115;49.296;10.602;2022-09-09T07:11:58;2.80;;;1.10;;
974;SDS011;6115;49.296;10.602;2022-09-09T07:16:59;3.27;;;1.20;;
974;SDS011;6115;49.296;10.602;2022-09-09T07:22:00;2.00;;;1.00;;
974;SDS011;6115;49.296;10.602;2022-09-09T07:27:02;3.00;;;1.47;;
974;SDS011;6115;49.296;10.602;2022-09-09T07:32:03;2.50;;;1.13;;
974;SDS011;6115;49.296;10.602;2022-09-09T07:37:04;3.07;;;1.30;;
974;SDS011;6115;49.296;10.602;2022-09-09T07:42:05;1.60;;;1.13;;
974;SDS011;6115;49.296;10.602;2022-09-09T07:47:06;2.97;;;1.10;;
974;SDS011;6115;49.296;10.602;2022-09-09T07:52:07;4.00;;;1.60;;
974;SDS011;6115;49.296;10.602;2022-09-09T07:57:08;1.03;;;0.90;;
974;SDS011;6115;49.296;10.602;2022-09-09T08:02:08;2.83;;;1.13;;
974;SDS011;6115;49.296;10.602;2022-09-09T08:07:09;4.80;;;1.10;;
974;SDS011;6115;49.296;10.602;2022-09-09T08:12:10;3.97;;;1.00;;
974;SDS011;6115;49.296;10.602;2022-09-09T08:17:12;3.50;;;1.00;;
974;SDS011;6115;49.296;10.602;2022-09-09T08:22:13;5.70;;;1.10;;
974;SDS011;6115;49.296;10.602;2022-09-09T08:27:14;2.33;;;0.90;;
974;SDS011;6115;49.296;10.602;2022-09-09T08:32:14;1.90;;;0.90;;
974;SDS011;6115;49.296;10.602;2022-09-09T08:37:16;2.67;;;1.00;;
974;SDS011;6115;49.296;10.602;2022-09-09T08:42:22;2.20;;;0.87;;
974;SDS011;6115;49.296;10.602;2022-09-09T08:53:00;1.67;;;0.70;;
974;SDS011;6115;49.296;10.602;2022-09-09T09:08:52;1.67;;;0.80;;
974;SDS011;6115;49.296;10.602;2022-09-09T09:14:00;4.10;;;0.93;;
974;SDS011;6115;49.296;10.602;2022-09-09T09:19:13;1.10;;;0.70;;
974;SDS011;6115;49.296;10.602;2022-09-09T09:24:27;2.00;;;0.80;;
974;SDS011;6115;49.296;10.602;2022-09-09T09:29:50;3.57;;;1.00;;
974;SDS011;6115;49.296;10.602;2022-09-09T09:34:57;2.97;;;0.83;;
974;SDS011;6115;49.296;10.602;2022-09-09T09:40:11;2.73;;;0.90;;
974;SDS011;6115;49.296;10.602;2022-09-09T09:45:20;2.77;;;0.80;;
974;SDS011;6115;49.296;10.602;2022-09-09T09:55:57;4.80;;;1.00;;
974;SDS011;6115;49.296;10.602;2022-09-09T10:01:02;2.23;;;0.93;;
974;SDS011;6115;49.296;10.602;2022-09-09T10:06:03;1.80;;;0.90;;
974;SDS011;6115;49.296;10.602;2022-09-09T10:11:13;1.70;;;1.00;;
974;SDS011;6115;49.296;10.602;2022-09-09T10:21:41;1.43;;;1.00;;
974;SDS011;6115;49.296;10.602;2022-09-09T10:27:03;1.80;;;0.93;;
974;SDS011;6115;49.296;10.602;2022-09-09T10:32:29;2.13;;;1.10;;
974;SDS011;6115;49.296;10.602;2022-09-09T10:42:54;1.93;;;1.30;;
974;SDS011;6115;49.296;10.602;2022-09-09T10:48:16;1.93;;;0.90;;
974;SDS011;6115;49.296;10.602;2022-09-09T10:58:39;3.30;;;1.00;;
974;SDS011;6115;49.296;10.602;2022-09-09T11:03:51;2.53;;;1.00;;
974;SDS011;6115;49.296;10.602;2022-09-09T11:09:17;1.30;;;0.73;;
974;SDS011;6115;49.296;10.602;2022-09-09T11:14:24;2.27;;;1.03;;
974;SDS011;6115;49.296;10.602;2022-09-09T11:19:34;2.97;;;1.07;;
974;SDS011;6115;49.296;10.602;2022-09-09T11:24:46;3.60;;;0.97;;
974;SDS011;6115;49.296;10.602;2022-09-09T11:41:01;2.17;;;0.87;;
974;SDS011;6115;49.296;10.602;2022-09-09T11:46:05;2.70;;;1.10;;
974;SDS011;6115;49.296;10.602;2022-09-09T11:51:10;3.23;;;0.97;;
974;SDS011;6115;49.296;10.602;2022-09-09T11:56:24;3.57;;;2.37;;
974;SDS011;6115;49.296;10.602;2022-09-09T12:01:28;1.90;;;1.20;;
974;SDS011;6115;49.296;10.602;2022-09-09T12:06:41;2.87;;;1.00;;
974;SDS011;6115;49.296;10.602;2022-09-09T12:12:04;3.00;;;1.60;;
974;SDS011;6115;49.296;10.602;2022-09-09T12:17:26;7.60;;;2.47;;
974;SDS011;6115;49.296;10.602;2022-09-09T12:22:37;5.40;;;1.50;;
974;SDS011;6115;49.296;10.602;2022-09-09T12:33:12;1.50;;;0.97;;
974;SDS011;6115;49.296;10.602;2022-09-09T12:38:22;2.90;;;1.03;;
974;SDS011;6115;49.296;10.602;2022-09-09T12:43:35;1.57;;;1.00;;
974;SDS011;6115;49.296;10.602;2022-09-09T12:48:38;1.87;;;0.80;;
974;SDS011;6115;49.296;10.602;2022-09-09T12:53:42;3.37;;;1.07;;
974;SDS011;6115;49.296;10.602;2022-09-09T12:58:46;3.33;;;1.10;;
974;SDS011;6115;49.296;10.602;2022-09-09T13:03:49;3.00;;;1.07;;
974;SDS011;6115;49.296;10.602;2022-09-09T13:08:53;3.43;;;1.73;;
974;SDS011;6115;49.296;10.602;2022-09-09T13:13:55;2.13;;;1.10;;
974;SDS011;6115;49.296;10.602;2022-09-09T13:19:00;6.67;;;1.27;;
974;SDS011;6115;49.296;10.602;2022-09-09T13:24:19;2.17;;;1.00;;
974;SDS011;6115;49.296;10.602;2022-09-09T13:29:30;3.00;;;1.27;;
974;SDS011;6115;49.296;10.602;2022-09-09T13:34:32;1.97;;;1.20;;
974;SDS011;6115;49.296;10.602;2022-09-09T13:39:35;2.17;;;1.10;;
974;SDS011;6115;49.296;10.602;2022-09-09T13:44:38;3.43;;;1.47;;
974;SDS011;6115;49.296;10.602;2022-09-09T13:49:39;3.40;;;1.43;;
974;SDS011;6115;49.296;10.602;2022-09-09T13:54:40;3.03;;;1.33;;
974;SDS011;6115;49.296;10.602;2022-09-09T13:59:41;7.60;;;1.40;;
974;SDS011;6115;49.296;10.602;2022-09-09T14:04:41;3.00;;;1.03;;
974;SDS011;6115;49.296;10.602;2022-09-09T14:09:42;3.50;;;1.37;;
974;SDS011;6115;49.296;10.602;2022-09-09T14:14:43;2.50;;;1.17;;
974;SDS011;6115;49.296;10.602;2022-09-09T14:19:43;2.33;;;0.80;;
974;SDS011;6115;49.296;10.602;2022-09-09T14:24:45;2.57;;;0.70;;
974;SDS011;6115;49.296;10.602;2022-09-09T14:29:46;5.27;;;0.90;;
974;SDS011;6115;49.296;10.602;2022-09-09T14:34:46;0.90;;;0.80;;
974;SDS011;6115;49.296;10.602;2022-09-09T14:39:49;1.67;;;0.70;;
974;SDS011;6115;49.296;10.602;2022-09-09T14:44:50;1.60;;;0.80;;
974;SDS011;6115;49.296;10.602;2022-09-09T14:49:50;0.97;;;0.60;;
974;SDS011;6115;49.296;10.602;2022-09-09T14:54:51;1.90;;;0.60;;
974;SDS011;6115;49.296;10.602;2022-09-09T14:59:52;1.00;;;0.60;;
974;SDS011;6115;49.296;10.602;2022-09-09T15:04:53;1.10;;;0.60;;
974;SDS011;6115;49.296;10.602;2022-09-09T15:09:57;2.43;;;0.77;;
974;SDS011;6115;49.296;10.602;2022-09-09T15:14:57;1.00;;;0.60;;
974;SDS011;6115;49.296;10.602;2022-09-09T15:19:58;1.10;;;0.63;;
974;SDS011;6115;49.296;10.602;2022-09-09T15:24:58;2.63;;;1.07;;
974;SDS011;6115;49.296;10.602;2022-09-09T15:29:59;1.07;;;0.53;;
974;SDS011;6115;49.296;10.602;2022-09-09T15:35:00;1.37;;;0.90;;
974;SDS011;6115;49.296;10.602;2022-09-09T15:40:01;1.30;;;0.60;;
974;SDS011;6115;49.296;10.602;2022-09-09T15:45:02;1.13;;;0.80;;
974;SDS011;6115;49.296;10.602;2022-09-09T15:50:05;2.03;;;0.70;;
974;SDS011;6115;49.296;10.602;2022-09-09T15:55:05;1.87;;;0.70;;
974;SDS011;6115;49.296;10.602;2022-09-09T16:00:08;3.73;;;1.00;;
974;SDS011;6115;49.296;10.602;2022-09-09T16:05:09;2.40;;;0.80;;
974;SDS011;6115;49.296;10.602;2022-09-09T16:10:10;2.80;;;0.93;;
974;SDS011;6115;49.296;10.602;2022-09-09T16:15:13;2.73;;;0.77;;
974;SDS011;6115;49.296;10.602;2022-09-09T16:20:13;3.20;;;0.70;;
974;SDS011;6115;49.296;10.602;2022-09-09T16:25:14;5.50;;;0.90;;
974;SDS011;6115;49.296;10.602;2022-09-09T16:30:15;4.10;;;0.70;;
974;SDS011;6115;49.296;10.602;2022-09-09T16:35:15;1.43;;;0.80;;
974;SDS011;6115;49.296;10.602;2022-09-09T16:40:16;6.00;;;1.00;;
974;SDS011;6115;49.296;10.602;2022-09-09T16:45:17;2.67;;;0.80;;
974;SDS011;6115;49.296;10.602;2022-09-09T16:50:18;2.70;;;1.27;;
974;SDS011;6115;49.296;10.602;2022-09-09T16:55:19;1.50;;;0.80;;
974;SDS011;6115;49.296;10.602;2022-09-09T17:00:20;1.60;;;0.70;;
974;SDS011;6115;49.296;10.602;2022-09-09T17:05:23;3.63;;;0.80;;
974;SDS011;6115;49.296;10.602;2022-09-09T17:10:25;3.43;;;1.17;;
974;SDS011;6115;49.296;10.602;2022-09-09T17:15:25;3.27;;;0.90;;
974;SDS011;6115;49.296;10.602;2022-09-09T17:20:26;2.90;;;0.90;;
974;SDS011;6115;49.296;10.602;2022-09-09T17:25:26;2.20;;;0.80;;
974;SDS011;6115;49.296;10.602;2022-09-09T17:30:27;5.77;;;1.17;;
974;SDS011;6115;49.296;10.602;2022-09-09T17:35:28;3.40;;;1.33;;
974;SDS011;6115;49.296;10.602;2022-09-09T17:40:28;1.93;;;1.10;;
974;SDS011;6115;49.296;10.602;2022-09-09T17:45:29;8.10;;;1.97;;
974;SDS011;6115;49.296;10.602;2022-09-09T17:50:30;1.10;;;0.80;;
974;SDS011;6115;49.296;10.602;2022-09-09T17:55:32;1.77;;;0.80;;
974;SDS011;6115;49.296;10.602;2022-09-09T18:00:33;7.07;;;2.30;;
974;SDS011;6115;49.296;10.602;2022-09-09T18:05:35;1.90;;;0.97;;
974;SDS011;6115;49.296;10.602;2022-09-09T18:10:35;1.97;;;0.87;;
974;SDS011;6115;49.296;10.602;2022-09-09T18:15:36;6.07;;;1.40;;
974;SDS011;6115;49.296;10.602;2022-09-09T18:20:38;3.63;;;1.30;;
974;SDS011;6115;49.296;10.602;2022-09-09T18:25:39;2.90;;;1.17;;
974;SDS011;6115;49.296;10.602;2022-09-09T18:30:40;3.50;;;1.07;;
974;SDS011;6115;49.296;10.602;2022-09-09T18:35:41;4.10;;;2.13;;
974;SDS011;6115;49.296;10.602;2022-09-09T18:40:42;3.53;;;1.00;;
974;SDS011;6115;49.296;10.602;2022-09-09T18:45:43;5.83;;;1.70;;
974;SDS011;6115;49.296;10.602;2022-09-09T18:50:43;3.10;;;1.30;;
974;SDS011;6115;49.296;10.602;2022-09-09T18:55:44;3.50;;;1.80;;
974;SDS011;6115;49.296;10.602;2022-09-09T19:00:45;2.27;;;1.43;;
974;SDS011;6115;49.296;10.602;2022-09-09T19:05:45;3.77;;;1.67;;
974;SDS011;6115;49.296;10.602;2022-09-09T19:10:46;4.37;;;1.50;;
974;SDS011;6115;49.296;10.602;2022-09-09T19:15:47;3.57;;;1.63;;
974;SDS011;6115;49.296;10.602;2022-09-09T19:20:47;2.37;;;1.60;;
974;SDS011;6115;49.296;10.602;2022-09-09T19:25:48;4.20;;;1.70;;
974;SDS011;6115;49.296;10.602;2022-09-09T19:30:49;8.43;;;2.13;;
974;SDS011;6115;49.296;10.602;2022-09-09T19:35:56;4.83;;;1.60;;
974;SDS011;6115;49.296;10.602;2022-09-09T19:41:06;3.60;;;1.97;;
974;SDS011;6115;49.296;10.602;2022-09-09T19:46:08;8.93;;;1.80;;
974;SDS011;6115;49.296;10.602;2022-09-09T19:51:11;5.47;;;1.97;;
974;SDS011;6115;49.296;10.602;2022-09-09T19:56:22;4.47;;;1.80;;
974;SDS011;6115;49.296;10.602;2022-09-09T20:01:26;4.50;;;1.70;;
974;SDS011;6115;49.296;10.602;2022-09-09T20:06:29;7.30;;;1.90;;
974;SDS011;6115;49.296;10.602;2022-09-09T20:11:34;2.63;;;1.80;;
974;SDS011;6115;49.296;10.602;2022-09-09T20:16:37;1.97;;;1.67;;
974;SDS011;6115;49.296;10.602;2022-09-09T20:21:41;6.50;;;2.17;;
974;SDS011;6115;49.296;10.602;2022-09-09T20:26:44;3.77;;;2.13;;
974;SDS011;6115;49.296;10.602;2022-09-09T20:31:47;5.10;;;2.03;;
974;SDS011;6115;49.296;10.602;2022-09-09T20:36:48;2.97;;;1.73;;
974;SDS011;6115;49.296;10.602;2022-09-09T20:41:49;4.63;;;2.00;;
974;SDS011;6115;49.296;10.602;2022-09-09T20:46:51;1.60;;;1.50;;
974;SDS011;6115;49.296;10.602;2022-09-09T20:51:55;2.83;;;2.00;;
974;SDS011;6115;49.296;10.602;2022-09-09T20:56:56;2.57;;;1.93;;
974;SDS011;6115;49.296;10.602;2022-09-09T21:01:59;2.20;;;2.00;;
974;SDS011;6115;49.296;10.602;2022-09-09T21:07:01;2.90;;;1.90;;
974;SDS011;6115;49.296;10.602;2022-09-09T21:12:03;3.80;;;2.10;;
974;SDS011;6115;49.296;10.602;2022-09-09T21:17:04;2.77;;;1.80;;
974;SDS011;6115;49.296;10.602;2022-09-09T21:22:04;3.00;;;2.20;;
974;SDS011;6115;49.296;10.602;2022-09-09T21:27:04;5.40;;;2.63;;
974;SDS011;6115;49.296;10.602;2022-09-09T21:32:05;2.70;;;2.00;;
974;SDS011;6115;49.296;10.602;2022-09-09T21:37:06;5.13;;;3.40;;
974;SDS011;6115;49.296;10.602;2022-09-09T21:42:08;4.40;;;2.80;;
974;SDS011;6115;49.296;10.602;2022-09-09T21:47:08;2.17;;;1.80;;
974;SDS011;6115;49.296;10.602;2022-09-09T21:52:09;3.23;;;1.80;;
974;SDS011;6115;49.296;10.602;2022-09-09T21:57:09;4.33;;;1.90;;
974;SDS011;6115;49.296;10.602;2022-09-09T22:02:13;3.10;;;1.83;;
974;SDS011;6115;49.296;10.602;2022-09-09T22:07:13;2.63;;;1.80;;
974;SDS011;6115;49.296;10.602;2022-09-09T22:12:16;3.93;;;1.87;;
974;SDS011;6115;49.296;10.602;2022-09-09T22:17:16;4.17;;;2.20;;
974;SDS011;6115;49.296;10.602;2022-09-09T22:22:20;3.33;;;2.53;;
974;SDS011;6115;49.296;10.602;2022-09-09T22:27:20;2.90;;;2.40;;
974;SDS011;6115;49.296;10.602;2022-09-09T22:32:21;4.80;;;2.80;;
974;SDS011;6115;49.296;10.602;2022-09-09T22:37:21;2.67;;;2.10;;
974;SDS011;6115;49.296;10.602;2022-09-09T22:42:22;3.50;;;2.10;;
974;SDS011;6115;49.296;10.602;2022-09-09T22:47:22;2.60;;;2.00;;
974;SDS011;6115;49.296;10.602;2022-09-09T22:52:23;3.00;;;2.30;;
974;SDS011;6115;49.296;10.602;2022-09-09T22:57:24;2.30;;;2.10;;
974;SDS011;6115;49.296;10.602;2022-09-09T23:02:25;5.63;;;2.47;;
974;SDS011;6115;49.296;10.602;2022-09-09T23:07:26;4.80;;;2.63;;
974;SDS011;6115;49.296;10.602;2022-09-09T23:12:27;3.57;;;2.20;;
974;SDS011;6115;49.296;10.602;2022-09-09T23:17:29;3.90;;;1.87;;
974;SDS011;6115;49.296;10.602;2022-09-09T23:22:31;5.07;;;2.33;;
974;SDS011;6115;49.296;10.602;2022-09-09T23:27:35;4.20;;;3.23;;
974;SDS011;6115;49.296;10.602;2022-09-09T23:32:37;3.73;;;2.73;;
974;SDS011;6115;49.296;10.602;2022-09-09T23:37:38;3.47;;;3.17;;
974;SDS011;6115;49.296;10.602;2022-09-09T23:42:39;4.87;;;2.97;;
974;SDS011;6115;49.296;10.602;2022-09-09T23:47:39;3.43;;;3.00;;
974;SDS011;6115;49.296;10.602;2022-09-09T23:52:40;6.73;;;2.63;;
974;SDS011;6115;49.296;10.602;2022-09-09T23:57:43;3.23;;;2.53;;
